createdAt,value
2023-04-26T04:00:29.632Z,998.93
2023-04-26T04:05:29.639Z,998.88
2023-04-26T04:10:29.567Z,998.93
2023-04-26T04:15:36.561Z,999.00
2023-04-26T04:20:29.411Z,998.92
2023-04-26T04:25:29.355Z,998.92
2023-04-26T04:30:29.314Z,998.97
2023-04-26T04:35:29.264Z,999.10
2023-04-26T04:40:29.184Z,999.06
2023-04-26T04:45:29.140Z,999.11
2023-04-26T04:50:29.105Z,999.03
2023-04-26T04:55:29.053Z,999.14
2023-04-26T05:00:28.990Z,999.18
2023-04-26T05:05:29.073Z,999.19
2023-04-26T05:10:28.879Z,999.27
2023-04-26T05:15:28.858Z,999.27
2023-04-26T05:20:28.783Z,999.37
2023-04-26T05:25:28.716Z,999.36
2023-04-26T05:30:28.718Z,999.42
2023-04-26T05:35:28.644Z,999.49
2023-04-26T05:40:28.568Z,999.40
2023-04-26T05:45:28.752Z,999.44
2023-04-26T05:50:28.450Z,999.48
2023-04-26T05:55:28.540Z,999.48
2023-04-26T06:00:28.348Z,999.53
2023-04-26T06:05:28.341Z,999.65
2023-04-26T06:10:28.305Z,999.66
2023-04-26T06:15:28.195Z,999.69
2023-04-26T06:20:28.209Z,999.68
2023-04-26T06:25:28.073Z,999.74
2023-04-26T06:30:28.044Z,999.76
2023-04-26T06:35:28.010Z,999.90
2023-04-26T06:40:28.028Z,999.91
2023-04-26T06:45:27.876Z,999.91
2023-04-26T06:50:28.185Z,999.96
2023-04-26T06:55:27.771Z,999.85
2023-04-26T07:00:27.858Z,999.82
2023-04-26T07:05:27.810Z,999.80
2023-04-26T07:10:27.923Z,999.76
2023-04-26T07:15:27.570Z,999.82
2023-04-26T07:20:27.510Z,999.80
2023-04-26T07:25:27.434Z,999.80
2023-04-26T07:30:27.401Z,999.88
2023-04-26T07:35:27.394Z,999.80
2023-04-26T07:40:27.264Z,999.73
2023-04-26T07:45:27.266Z,999.71
2023-04-26T07:50:27.177Z,999.66
2023-04-26T07:55:27.194Z,999.75
2023-04-26T08:00:27.061Z,999.75
2023-04-26T08:05:27.376Z,999.78
2023-04-26T08:10:26.955Z,999.76
2023-04-26T08:15:26.950Z,999.73
2023-04-26T08:20:26.839Z,999.71
2023-04-26T08:25:26.787Z,999.72
2023-04-26T08:30:26.720Z,999.83
2023-04-26T08:35:26.711Z,999.75
2023-04-26T08:40:26.632Z,999.74
2023-04-26T08:45:26.568Z,999.77
2023-04-26T08:50:26.560Z,999.78
2023-04-26T08:55:26.568Z,999.75
2023-04-26T09:00:26.402Z,999.75
2023-04-26T09:05:26.354Z,999.73
2023-04-26T09:10:26.315Z,999.87
2023-04-26T09:15:26.274Z,999.83
2023-04-26T09:20:26.208Z,999.72
2023-04-26T09:25:26.146Z,999.65
2023-04-26T09:30:26.086Z,999.76
2023-04-26T09:35:26.193Z,999.75
2023-04-26T09:40:25.973Z,999.62
2023-04-26T09:45:25.917Z,999.60
2023-04-26T09:50:25.864Z,999.55
2023-04-26T09:55:34.728Z,999.54
2023-04-26T10:00:26.749Z,999.51
2023-04-26T10:05:25.702Z,999.46
2023-04-26T10:10:25.645Z,999.43
2023-04-26T10:15:32.659Z,999.42
2023-04-26T10:20:25.536Z,999.33
2023-04-26T10:25:25.479Z,999.41
2023-04-26T10:30:25.514Z,999.40
2023-04-26T10:35:25.502Z,999.31
2023-04-26T10:40:25.320Z,999.35
2023-04-26T10:45:25.265Z,999.32
2023-04-26T10:50:25.216Z,999.27
2023-04-26T10:55:25.552Z,999.30
2023-04-26T11:00:25.114Z,999.26
2023-04-26T11:05:25.465Z,999.30
2023-04-26T11:10:24.993Z,999.20
2023-04-26T11:15:24.997Z,999.20
2023-04-26T11:20:24.877Z,999.20
2023-04-26T11:25:24.842Z,999.13
2023-04-26T11:30:24.767Z,999.16
2023-04-26T11:35:24.960Z,999.12
2023-04-26T11:40:24.663Z,999.20
2023-04-26T11:45:25.171Z,999.13
2023-04-26T11:50:24.565Z,999.07
2023-04-26T11:55:24.628Z,999.01
2023-04-26T12:00:24.438Z,999.04
2023-04-26T12:05:24.589Z,999.00
2023-04-26T12:10:24.345Z,998.97
2023-04-26T12:15:24.295Z,998.98
2023-04-26T12:20:24.231Z,999.03
2023-04-26T12:25:24.190Z,999.06
2023-04-26T12:30:24.118Z,999.12
2023-04-26T12:35:24.092Z,999.04
2023-04-26T12:40:24.019Z,999.07
2023-04-26T12:45:23.966Z,999.09
2023-04-26T12:50:23.898Z,999.06
2023-04-26T12:55:23.874Z,999.00
2023-04-26T13:00:23.837Z,998.98
2023-04-26T13:05:23.731Z,998.95
2023-04-26T13:10:23.688Z,999.00
2023-04-26T13:15:23.687Z,998.95
2023-04-26T13:20:25.723Z,998.92
2023-04-26T13:25:23.631Z,999.03
2023-04-26T13:30:23.506Z,999.04
2023-04-26T13:35:23.423Z,999.00
2023-04-26T13:40:23.361Z,999.02
2023-04-26T13:45:23.313Z,998.97
2023-04-26T13:50:23.241Z,998.81
2023-04-26T13:55:23.238Z,998.80
2023-04-26T14:00:23.154Z,998.84
2023-04-26T14:05:23.175Z,998.82
2023-04-26T14:10:23.040Z,998.80
2023-04-26T14:15:23.002Z,998.81
2023-04-26T14:20:22.913Z,998.71
2023-04-26T14:25:22.869Z,998.80
2023-04-26T14:30:22.908Z,998.81
2023-04-26T14:35:22.769Z,998.79
2023-04-26T14:40:22.706Z,998.70
2023-04-26T14:45:27.780Z,998.75
2023-04-26T14:50:23.599Z,998.66
2023-04-26T14:55:22.583Z,998.63
2023-04-26T15:00:22.490Z,998.47
2023-04-26T15:05:22.436Z,998.54
2023-04-26T15:10:22.409Z,998.54
2023-04-26T15:15:22.371Z,998.51
2023-04-26T15:20:22.421Z,998.46
2023-04-26T15:25:22.214Z,998.50
2023-04-26T15:30:22.205Z,998.53
2023-04-26T15:35:22.135Z,998.45
2023-04-26T15:40:22.065Z,998.39
2023-04-26T15:45:22.009Z,998.39
2023-04-26T15:50:21.948Z,998.45
2023-04-26T15:55:21.909Z,998.44
2023-04-26T16:00:21.897Z,998.43
2023-04-26T16:05:21.783Z,998.47
2023-04-26T16:10:21.727Z,998.50
2023-04-26T16:15:21.695Z,998.60
2023-04-26T16:20:21.622Z,998.42
2023-04-26T16:25:21.652Z,998.44
2023-04-26T16:30:21.505Z,998.40
2023-04-26T16:35:21.470Z,998.35
2023-04-26T16:40:21.430Z,998.27
2023-04-26T16:45:21.347Z,998.28
2023-04-26T16:50:21.281Z,998.25
2023-04-26T16:55:21.282Z,998.29
2023-04-26T17:00:21.179Z,998.33
2023-04-26T17:05:21.134Z,998.42
2023-04-26T17:10:21.056Z,998.40
2023-04-26T17:15:21.080Z,998.33
2023-04-26T17:20:20.970Z,998.56
2023-04-26T17:25:20.894Z,998.49
2023-04-26T17:30:20.883Z,998.52
2023-04-26T17:35:20.837Z,998.53
2023-04-26T17:40:20.761Z,998.50
2023-04-26T17:45:20.691Z,998.47
2023-04-26T17:50:20.646Z,998.46
2023-04-26T17:55:20.609Z,998.49
2023-04-26T18:00:20.894Z,998.62
2023-04-26T18:05:20.484Z,998.59
2023-04-26T18:10:20.421Z,998.60
2023-04-26T18:15:20.409Z,998.59
2023-04-26T18:20:20.318Z,998.72
2023-04-26T18:25:20.268Z,998.70
2023-04-26T18:30:20.211Z,998.77
2023-04-26T18:35:20.189Z,998.74
2023-04-26T18:40:20.095Z,998.80
2023-04-26T18:45:20.059Z,998.85
2023-04-26T18:50:20.004Z,998.82
2023-04-26T18:55:19.969Z,998.89
2023-04-26T19:00:19.916Z,998.94
2023-04-26T19:05:20.294Z,999.02
2023-04-26T19:10:19.779Z,998.99
2023-04-26T19:15:19.764Z,999.01
2023-04-26T19:20:19.747Z,999.08
2023-04-26T19:25:19.622Z,999.11
2023-04-26T19:30:19.595Z,999.07
2023-04-26T19:35:19.545Z,999.12
2023-04-26T19:40:19.497Z,999.11
2023-04-26T19:45:19.409Z,999.26
2023-04-26T19:50:19.364Z,999.22
2023-04-26T19:55:19.447Z,999.18
2023-04-26T20:00:19.270Z,999.27
2023-04-26T20:05:19.216Z,999.31
2023-04-26T20:10:19.171Z,999.38
2023-04-26T20:15:19.123Z,999.46
2023-04-26T20:20:19.040Z,999.47
2023-04-26T20:25:19.026Z,999.50
2023-04-26T20:30:18.971Z,999.57
2023-04-26T20:35:18.898Z,999.52
2023-04-26T20:40:18.854Z,999.54
2023-04-26T20:45:18.808Z,999.58
2023-04-26T20:50:18.713Z,999.55
2023-04-26T20:55:18.706Z,999.42
2023-04-26T21:00:18.620Z,999.42
2023-04-26T21:05:18.598Z,999.44
2023-04-26T21:10:18.513Z,999.41
2023-04-26T21:15:18.490Z,999.43
2023-04-26T21:20:18.420Z,999.45
2023-04-26T21:25:18.346Z,999.50
2023-04-26T21:30:18.301Z,999.53
2023-04-26T21:35:18.281Z,999.48
2023-04-26T21:40:18.192Z,999.55
2023-04-26T21:45:18.279Z,999.59
2023-04-26T21:50:18.071Z,999.60
2023-04-26T21:55:18.051Z,999.50
2023-04-26T22:00:17.996Z,999.52
2023-04-26T22:05:17.945Z,999.52
2023-04-26T22:10:17.874Z,999.55
2023-04-26T22:15:17.845Z,999.57
2023-04-26T22:20:17.769Z,999.64
2023-04-26T22:25:17.711Z,999.62
2023-04-26T22:30:25.626Z,999.57
2023-04-26T22:35:18.635Z,999.62
2023-04-26T22:40:17.585Z,999.70
2023-04-26T22:45:17.510Z,999.72
2023-04-26T22:50:17.437Z,999.78
2023-04-26T22:55:17.442Z,999.77
2023-04-26T23:00:17.349Z,999.73
2023-04-26T23:05:17.284Z,999.72
2023-04-26T23:10:17.234Z,999.77
2023-04-26T23:15:17.210Z,999.84
2023-04-26T23:20:17.126Z,999.89
2023-04-26T23:25:17.073Z,999.93
